Airfield :
LOGIN :

Register | Disclaimer

   EN    FR    IT 

 










Legend :    VFR   Marginal VFR   IFR   Intensive IFR   Very Intensive IFR
Visi :
Ceiling :
>= 8 km
>= 3000ft
5 to 8 km
1000 to 3000 ft
1500m to 5 km
500 to 1000 ft
800 to 1500m
200 to 500 ft
< 800m
< 200 ft
Symbols :   Thunderstorms  Fog  Heavy snow  Heavy precipitations  Wind > 20 kt
SIGMETs :     Misc.  Thunderstorms  Icing  Turbulence  Mountain Waves  Volcanic Ashes







- Airport Elevation : 512 ft
- IATA code : URO
- Download approach charts


LFOP - Rouen Vallée de Seine

CURRENT METAR :
  • 291300Z AUTO 25007KT 210V280 CAVOK 24/15 Q1013 TEMPO VRB20G33KT 1500 TSRA BKN030CB

EXPIRED METARs :
  • 291230Z AUTO 25011KT 9999 FEW032 24/15 Q1014 TEMPO VRB20G33KT 1500 TSRA BKN030CB
  • 291200Z AUTO 25010KT 220V280 9999 FEW032 BKN090 24/16 Q1014 TEMPO VRB20G33KT 1500 TSRA BKN030CB
  • 291130Z AUTO 27010KT 230V310 9999 SCT034 BKN098 25/16 Q1013 TEMPO VRB20G33KT 1500 TSRA BKN030CB
  • 291100Z AUTO 25013KT 220V290 9999 FEW037 BKN120 25/16 Q1013 TEMPO VRB20G33KT 1500 TSRA BKN030CB
  • 291030Z AUTO 25013KT 9999 SCT040 OVC094 24/16 Q1013 TEMPO VRB20G33KT 1500 TSRA BKN030CB

TAF TAF LFOP
Valid from the 29 at 12:00 until the 30 at 12:00 UTC


291100Z 2912/3012 23010KT CAVOK
PROB40
TEMPO 2912/2920 VRB20G33KT 1500 TSRA BKN030CB
BECMG 2920/2922 BKN006
TEMPO 2920/3003 2000 RA OVC003
BECMG 3006/3008 BKN020
ATIS : +33 2 35 80 80 34
Met : +33 2 32 86 52 80
No reported NOTAMs for that airfield.



MET'MAP, your aeronautical weather chart ! - Copyright ORBIFLY December 2007 - Disclaimer

ORBIFLY MET'MAP TEAM :

Programming & Development : Alexandra Zaïnal
Concept & Development : Baudouin d'Aumeries
Co-Development & Prog : Marc-Olivier Méhu
Technical & hardware support : Manuel Goepfert

Contact : metmap@orbifly.com




SOURCES & CREDITS :

   NOAA